Time;durP1;ratioP1;P1;durP2;ratioP2;P2;SDS_P1;SDS_P2;PMS_P1;PMS_P2;Temp;Humidity;BMP_temperature;BMP_pressure;BME280_temperature;BME280_humidity;BME280_pressure;Samples;Min_cycle;Max_cycle;Signal;HPM_P1;HPM_P2
2024/01/03 00:02:05;;;;;;;26.60;12.60;;;;;;;-0.31;47.12;99509.60;108238;1254;73507;-67
2024/01/03 00:04:31;;;;;;;33.80;14.70;;;;;;;-0.28;47.15;99512.34;108236;1253;60411;-67
2024/01/03 00:06:58;;;;;;;38.90;16.30;;;;;;;-0.25;47.27;99513.89;108087;1254;72437;-64
2024/01/03 00:09:25;;;;;;;31.70;13.40;;;;;;;-0.18;47.70;99511.45;108275;1252;61814;-68
2024/01/03 00:11:53;;;;;;;27.40;13.80;;;;;;;-0.04;47.92;99508.65;108286;1253;60293;-67
2024/01/03 00:14:24;;;;;;;29.00;13.20;;;;;;;0.24;47.92;99510.07;108137;1253;73873;-68
2024/01/03 00:16:51;;;;;;;21.00;10.90;;;;;;;0.41;47.62;99509.11;108240;1253;68739;-65
2024/01/03 00:19:21;;;;;;;21.60;11.40;;;;;;;0.62;48.08;99521.59;108101;1258;72605;-67
2024/01/03 00:21:47;;;;;;;21.10;10.80;;;;;;;0.78;48.19;99525.13;108352;1252;61752;-67
2024/01/03 00:24:17;;;;;;;23.50;12.00;;;;;;;0.95;48.18;99519.11;108318;1252;60052;-66
2024/01/03 00:26:44;;;;;;;;;;;;;;;1.18;47.95;99523.77;108264;1253;73736;-66
2024/01/03 00:29:41;;;;;;;24.20;12.10;;;;;;;1.38;48.02;99526.19;108122;1257;70359;-66
2024/01/03 00:32:07;;;;;;;26.40;13.80;;;;;;;1.62;48.25;99522.33;107993;1253;71709;-65
2024/01/03 00:34:39;;;;;;;27.20;13.60;;;;;;;1.49;46.80;99512.58;108083;1253;61667;-64
2024/01/03 00:37:30;;;;;;;29.70;14.10;;;;;;;1.26;45.78;99500.70;108285;1253;60461;-65
2024/01/03 00:39:57;;;;;;;29.90;14.40;;;;;;;0.98;45.20;99499.90;108121;1254;74578;-67
2024/01/03 00:42:24;;;;;;;29.80;14.40;;;;;;;0.75;44.94;99504.59;108221;1254;70017;-66
2024/01/03 00:44:51;;;;;;;32.00;15.50;;;;;;;0.71;45.53;99506.35;108186;1254;73441;-68
2024/01/03 00:47:18;;;;;;;30.80;15.40;;;;;;;0.67;45.75;99501.18;108229;1253;60520;-64
2024/01/03 00:49:45;;;;;;;29.10;14.10;;;;;;;0.55;45.85;99512.31;108072;1252;60345;-65
2024/01/03 00:52:12;;;;;;;37.70;15.90;;;;;;;0.44;45.90;99504.08;108300;1254;72687;-65
2024/01/03 00:54:38;;;;;;;31.60;15.20;;;;;;;0.37;46.00;99502.92;108162;1254;70485;-66
2024/01/03 00:57:05;;;;;;;30.90;16.00;;;;;;;0.40;46.11;99504.45;108316;1254;72724;-66
2024/01/03 00:59:34;;;;;;;34.50;16.90;;;;;;;0.28;46.37;99505.05;108371;1253;61919;-63
2024/01/03 01:02:02;;;;;;;33.90;15.70;;;;;;;0.22;46.32;99501.27;108348;1254;60447;-67
2024/01/03 01:04:30;;;;;;;34.70;17.00;;;;;;;0.27;46.45;99496.25;108208;1253;74179;-66
2024/01/03 01:06:57;;;;;;;32.50;15.30;;;;;;;0.20;46.41;99490.59;108210;1254;70012;-69
2024/01/03 01:09:24;;;;;;;32.00;15.10;;;;;;;0.07;46.77;99487.89;108244;1256;71621;-70
2024/01/03 01:11:51;;;;;;;37.20;16.10;;;;;;;0.15;46.70;99488.88;108065;1254;62191;-66
2024/01/03 01:14:18;;;;;;;30.10;14.30;;;;;;;0.25;46.40;99492.64;108146;1252;60572;-67
2024/01/03 01:16:45;;;;;;;33.00;16.00;;;;;;;0.23;46.53;99485.91;108256;1254;73781;-67
2024/01/03 01:19:11;;;;;;;29.60;14.80;;;;;;;0.23;46.34;99486.26;108276;1254;70525;-67
2024/01/03 01:21:40;;;;;;;28.00;13.50;;;;;;;0.08;46.61;99483.05;108247;1254;71451;-67
2024/01/03 01:24:07;;;;;;;34.30;17.10;;;;;;;0.05;46.76;99474.79;108263;1256;60877;-66
2024/01/03 01:26:34;;;;;;;26.70;14.00;;;;;;;-0.00;46.94;99473.08;108262;1254;60412;-66
2024/01/03 01:29:00;;;;;;;36.30;16.70;;;;;;;0.03;47.18;99474.45;108274;1252;74437;-66
2024/01/03 01:31:27;;;;;;;31.00;14.30;;;;;;;-0.00;47.01;99474.28;108325;1251;70900;-65
2024/01/03 01:33:54;;;;;;;29.20;14.20;;;;;;;0.08;46.81;99481.83;108320;1251;71502;-66
2024/01/03 01:36:21;;;;;;;30.60;15.20;;;;;;;0.16;47.02;99485.60;108263;1251;61809;-65
2024/01/03 01:38:48;;;;;;;34.80;16.00;;;;;;;0.21;46.88;99481.79;108280;1255;60281;-65
2024/01/03 01:41:15;;;;;;;32.50;16.10;;;;;;;0.26;46.75;99473.98;108165;1251;73807;-67
2024/01/03 01:43:42;;;;;;;34.30;16.30;;;;;;;0.27;46.90;99475.36;108308;1251;69460;-65
2024/01/03 01:46:08;;;;;;;29.80;14.80;;;;;;;0.18;46.79;99467.12;108175;1251;71442;-66
2024/01/03 01:48:35;;;;;;;40.80;17.90;;;;;;;0.20;46.58;99469.88;108289;1251;61877;-66
2024/01/03 01:51:02;;;;;;;30.70;15.30;;;;;;;0.10;46.69;99467.51;108304;1255;60312;-66
2024/01/03 01:53:29;;;;;;;35.00;16.10;;;;;;;-0.00;46.75;99462.73;108272;1255;74801;-66
2024/01/03 01:55:56;;;;;;;34.60;18.20;;;;;;;0.00;46.85;99461.88;108221;1251;70302;-65
2024/01/03 01:58:23;;;;;;;36.60;17.70;;;;;;;0.01;47.04;99455.48;108235;1256;72776;-67
2024/01/03 02:00:49;;;;;;;36.40;17.30;;;;;;;-0.05;47.11;99453.77;108270;1251;60757;-66
2024/01/03 02:03:16;;;;;;;34.70;17.30;;;;;;;-0.08;47.15;99448.44;108157;1251;60364;-66
2024/01/03 02:05:43;;;;;;;42.20;18.00;;;;;;;-0.17;46.90;99436.23;108293;1255;72703;-66
2024/01/03 02:08:10;;;;;;;33.30;16.60;;;;;;;-0.18;46.85;99461.43;108304;1251;70318;-67
2024/01/03 02:10:37;;;;;;;34.70;16.50;;;;;;;-0.12;46.91;99467.10;108293;1251;71359;-66
2024/01/03 02:13:05;;;;;;;36.90;17.50;;;;;;;-0.13;46.84;99469.34;108331;1251;61692;-66
2024/01/03 02:15:31;;;;;;;43.00;19.80;;;;;;;-0.19;46.65;99463.33;108262;1251;60354;-66
2024/01/03 02:17:58;;;;;;;41.00;17.50;;;;;;;-0.17;46.35;99463.31;108157;1251;73873;-66
2024/01/03 02:20:25;;;;;;;45.00;19.00;;;;;;;-0.14;46.29;99465.90;108236;1251;69872;-66
2024/01/03 02:22:51;;;;;;;39.00;18.10;;;;;;;-0.16;46.06;99467.80;108241;1251;72994;-67
2024/01/03 02:25:18;;;;;;;43.40;18.20;;;;;;;-0.42;46.19;99467.55;108256;1251;62022;-67
2024/01/03 02:27:45;;;;;;;36.00;17.30;;;;;;;-0.48;46.35;99464.80;108327;1251;60386;-67
2024/01/03 02:30:12;;;;;;;39.90;17.80;;;;;;;-0.50;46.36;99456.02;108295;1256;74178;-67
2024/01/03 02:32:39;;;;;;;39.60;18.30;;;;;;;-0.55;46.55;99457.77;108244;1254;70602;-65
2024/01/03 02:35:07;;;;;;;36.10;16.90;;;;;;;-0.58;46.47;99462.60;108267;1255;72463;-65
2024/01/03 02:37:34;;;;;;;40.80;18.20;;;;;;;-0.64;46.45;99462.95;108234;1254;61818;-66
2024/01/03 02:40:01;;;;;;;42.80;19.10;;;;;;;-0.70;46.42;99459.52;107948;1252;60335;-66
2024/01/03 02:42:28;;;;;;;39.40;17.60;;;;;;;-0.85;46.71;99453.01;108201;1254;74436;-66
2024/01/03 02:44:55;;;;;;;42.00;18.20;;;;;;;-0.85;46.54;99451.45;108258;1254;70093;-65
2024/01/03 02:47:23;;;;;;;41.00;18.00;;;;;;;-0.82;46.73;99458.67;108236;1254;73081;-65
2024/01/03 02:49:50;;;;;;;38.20;17.30;;;;;;;-0.84;46.87;99457.83;108297;1253;61008;-66
2024/01/03 02:52:17;;;;;;;41.70;18.50;;;;;;;-0.88;46.57;99456.45;108158;1254;60991;-62
2024/01/03 02:54:44;;;;;;;40.80;18.70;;;;;;;-0.81;46.88;99460.91;108276;1254;72517;-62
2024/01/03 02:57:11;;;;;;;39.90;18.40;;;;;;;-0.67;46.63;99465.89;108267;1251;60312;-65
2024/01/03 02:59:37;;;;;;;39.60;18.70;;;;;;;-0.64;46.47;99465.36;108254;1256;73080;-63
2024/01/03 03:02:04;;;;;;;38.90;17.30;;;;;;;-0.72;46.24;99460.23;108245;1252;61949;-67
2024/01/03 03:04:31;;;;;;;41.90;19.10;;;;;;;-0.69;45.90;99462.43;108184;1251;60431;-65
2024/01/03 03:06:57;;;;;;;40.80;17.70;;;;;;;-0.62;45.50;99462.95;108351;1251;73905;-66
2024/01/03 03:09:24;;;;;;;47.20;17.80;;;;;;;-0.68;45.54;99461.06;108376;1251;68823;-66
2024/01/03 03:11:51;;;;;;;38.00;15.70;;;;;;;-0.49;45.45;99457.39;108261;1251;72526;-67
2024/01/03 03:14:18;;;;;;;37.50;18.10;;;;;;;-0.69;45.40;99453.14;108252;1256;61875;-67
2024/01/03 03:16:45;;;;;;;38.40;16.70;;;;;;;-0.82;45.77;99458.17;108324;1251;60201;-67
2024/01/03 03:19:12;;;;;;;37.10;16.70;;;;;;;-0.76;45.77;99450.05;108344;1251;74237;-66
2024/01/03 03:21:39;;;;;;;38.50;17.40;;;;;;;-0.72;46.02;99442.81;108365;1252;69303;-66
2024/01/03 03:24:05;;;;;;;36.80;16.90;;;;;;;-0.68;46.13;99444.17;108170;1251;167627;-67
2024/01/03 03:29:33;;;;;;;37.60;17.70;;;;;;;-2.84;52.52;99449.53;104855;1292;600943;-69
2024/01/03 03:32:01;;;;;;;36.70;16.80;;;;;;;-1.29;48.41;99437.88;107195;1265;60659;-66
2024/01/03 03:34:29;;;;;;;39.00;17.40;;;;;;;-1.05;47.32;99433.73;107185;1266;59235;-67
2024/01/03 03:36:56;;;;;;;34.20;16.10;;;;;;;-0.98;47.35;99439.23;107169;1266;71188;-65
2024/01/03 03:39:24;;;;;;;37.80;15.80;;;;;;;-0.88;46.53;99441.80;107223;1266;68702;-66
2024/01/03 03:41:51;;;;;;;32.50;14.80;;;;;;;-0.95;45.74;99444.23;107193;1266;72685;-68
2024/01/03 03:44:19;;;;;;;35.10;15.80;;;;;;;-1.02;46.14;99442.00;107206;1265;143413;-68
2024/01/03 03:46:46;;;;;;;34.80;16.40;;;;;;;-1.09;45.42;99447.34;107382;1263;60033;-65
2024/01/03 03:49:14;;;;;;;36.40;16.40;;;;;;;-1.23;45.48;99446.14;107358;1263;72346;-66
2024/01/03 03:51:41;;;;;;;35.10;15.00;;;;;;;-1.46;45.44;99440.29;107366;1263;69014;-66
2024/01/03 03:54:09;;;;;;;31.30;16.00;;;;;;;-1.48;45.95;99442.17;107329;1262;71323;-66
2024/01/03 03:56:37;;;;;;;38.00;17.00;;;;;;;-1.45;46.00;99436.15;107239;1263;60656;-67
2024/01/03 03:59:07;;;;;;;39.10;18.00;;;;;;;-1.51;46.28;99433.05;107413;1263;59474;-67
2024/01/03 04:01:35;;;;;;;41.50;19.80;;;;;;;-1.63;46.25;99429.95;107421;1263;72009;-67
2024/01/03 04:04:04;;;;;;;43.50;21.10;;;;;;;-1.48;46.56;99435.81;107337;1265;70853;-67
2024/01/03 04:06:31;;;;;;;44.30;17.80;;;;;;;-1.53;46.35;99436.14;107189;1266;71487;-67
2024/01/03 04:08:59;;;;;;;44.50;19.10;;;;;;;-1.58;46.42;99435.63;107200;1267;61838;-66
2024/01/03 04:11:27;;;;;;;42.10;19.40;;;;;;;-1.56;46.80;99424.96;107242;1265;59523;-67
2024/01/03 04:13:54;;;;;;;39.80;17.70;;;;;;;-1.44;46.56;99419.63;107262;1265;71937;-67
2024/01/03 04:16:22;;;;;;;44.30;20.30;;;;;;;-1.42;46.81;99424.09;107201;1265;68707;-67
2024/01/03 04:18:49;;;;;;;34.90;16.50;;;;;;;-1.37;46.78;99419.11;107228;1266;72814;-67
2024/01/03 04:21:17;;;;;;;43.00;20.10;;;;;;;-1.36;46.61;99424.63;107291;1267;60501;-66
2024/01/03 04:23:45;;;;;;;38.30;18.70;;;;;;;-1.41;46.65;99424.63;107144;1266;60078;-66
2024/01/03 04:26:12;;;;;;;41.70;16.80;;;;;;;-1.35;46.37;99417.21;107215;1271;73587;-66
2024/01/03 04:28:41;;;;;;;44.30;19.00;;;;;;;-1.37;46.51;99415.14;107257;1265;68756;-66
2024/01/03 04:31:08;;;;;;;43.90;18.90;;;;;;;-1.34;46.55;99415.48;107235;1267;73797;-66
2024/01/03 04:33:36;;;;;;;43.60;18.90;;;;;;;-1.21;47.13;99420.49;107269;1266;60399;-68
2024/01/03 04:36:05;;;;;;;46.20;19.90;;;;;;;-1.26;47.50;99421.00;107244;1264;59585;-66
2024/01/03 04:38:32;;;;;;;40.80;18.80;;;;;;;-1.28;47.45;99420.15;107772;1257;71865;-66
2024/01/03 04:41:00;;;;;;;38.00;17.80;;;;;;;-1.26;47.08;99416.00;107773;1257;68222;-67
2024/01/03 04:43:27;;;;;;;40.00;18.00;;;;;;;-1.12;47.25;99413.92;107782;1257;71413;-67
2024/01/03 04:45:55;;;;;;;44.20;18.90;;;;;;;-0.93;47.82;99414.76;107714;1260;60519;-66
2024/01/03 04:48:22;;;;;;;40.80;18.30;;;;;;;-0.75;46.84;99411.45;107702;1257;59345;-65
2024/01/03 04:50:50;;;;;;;40.10;19.00;;;;;;;-0.68;46.76;99416.77;107712;1257;72096;-67
2024/01/03 04:53:18;;;;;;;41.50;18.70;;;;;;;-0.59;46.68;99413.81;107663;1257;68914;-66
2024/01/03 04:55:45;;;;;;;42.30;18.60;;;;;;;-0.52;46.70;99414.80;107685;1256;72707;-67
2024/01/03 04:58:13;;;;;;;36.70;16.60;;;;;;;-0.52;46.42;99415.16;107618;1257;61698;-66
2024/01/03 05:00:40;;;;;;;38.80;17.70;;;;;;;-0.55;46.06;99410.35;107618;1257;59489;-65
2024/01/03 05:03:08;;;;;;;35.90;16.70;;;;;;;-0.60;46.08;99410.20;107759;1257;73175;-66
2024/01/03 05:05:36;;;;;;;35.60;16.30;;;;;;;-0.56;45.90;99413.27;107783;1257;68838;-67
2024/01/03 05:08:04;;;;;;;40.30;18.70;;;;;;;-0.67;46.44;99413.14;107631;1257;71257;-67
2024/01/03 05:10:32;;;;;;;35.20;16.80;;;;;;;-0.73;46.62;99411.96;107700;1257;61670;-66
2024/01/03 05:13:00;;;;;;;40.40;17.60;;;;;;;-0.79;46.64;99415.59;107724;1257;59641;-67
2024/01/03 05:15:27;;;;;;;46.90;18.60;;;;;;;-0.81;47.09;99415.23;107750;1257;73074;-67
2024/01/03 05:17:55;;;;;;;40.70;18.20;;;;;;;-0.87;47.02;99409.58;107859;1257;70212;-67
2024/01/03 05:20:22;;;;;;;45.00;19.70;;;;;;;-0.95;47.47;99407.88;107734;1257;71393;-67
2024/01/03 05:22:50;;;;;;;39.80;18.20;;;;;;;-0.98;47.45;99407.19;107607;1257;60507;-66
2024/01/03 05:25:17;;;;;;;42.00;18.40;;;;;;;-0.98;47.34;99399.08;107727;1257;60017;-66
2024/01/03 05:27:45;;;;;;;41.30;18.20;;;;;;;-0.94;47.27;99393.39;107652;1257;73039;-67
2024/01/03 05:30:13;;;;;;;39.10;17.90;;;;;;;-0.89;47.78;99389.59;107537;1257;70303;-67
2024/01/03 05:32:41;;;;;;;39.70;18.90;;;;;;;-0.78;48.28;99391.80;107643;1259;71198;-67
2024/01/03 05:35:08;;;;;;;45.00;18.50;;;;;;;-0.66;48.32;99391.94;107551;1260;64439;-66
2024/01/03 05:37:36;;;;;;;40.80;18.20;;;;;;;-0.45;49.00;99393.41;107635;1258;60008;-66
2024/01/03 05:40:05;;;;;;;45.00;18.90;;;;;;;-0.28;49.31;99397.63;107629;1257;71810;-66
2024/01/03 05:42:33;;;;;;;39.00;16.30;;;;;;;-0.07;49.24;99405.29;107622;1258;68875;-66
2024/01/03 05:45:01;;;;;;;37.00;18.10;;;;;;;-0.07;49.07;99409.80;107704;1259;73044;-67
2024/01/03 05:47:29;;;;;;;43.20;19.90;;;;;;;0.08;48.70;99412.45;107707;1257;60870;-66
2024/01/03 05:49:57;;;;;;;38.90;16.80;;;;;;;0.17;48.42;99418.63;107629;1259;60232;-66
2024/01/03 05:52:24;;;;;;;45.30;18.70;;;;;;;0.32;48.79;99422.83;107610;1258;71845;-68
2024/01/03 05:54:52;;;;;;;44.20;18.30;;;;;;;0.47;48.90;99423.41;107637;1263;70038;-66
2024/01/03 05:57:19;;;;;;;41.80;16.70;;;;;;;0.56;47.74;99423.70;107600;1258;72753;-66
2024/01/03 05:59:47;;;;;;;40.10;17.00;;;;;;;0.43;46.58;99430.18;107603;1260;61733;-67
2024/01/03 06:02:14;;;;;;;41.30;17.80;;;;;;;0.16;46.48;99432.44;107562;1258;59549;-67
2024/01/03 06:04:43;;;;;;;45.60;21.20;;;;;;;-0.20;47.01;99431.23;107662;1257;72948;-66
2024/01/03 06:07:11;;;;;;;50.40;21.00;;;;;;;-0.33;47.37;99431.65;107599;1259;69978;-67
2024/01/03 06:09:40;;;;;;;41.70;19.40;;;;;;;-0.38;47.49;99426.50;107559;1260;74698;-66
2024/01/03 06:12:08;;;;;;;42.90;21.00;;;;;;;-0.28;47.61;99425.42;107550;1260;60476;-67
2024/01/03 06:14:38;;;;;;;42.10;18.40;;;;;;;-0.34;47.93;99424.40;107611;1259;59499;-68
2024/01/03 06:17:06;;;;;;;38.10;16.10;;;;;;;-0.46;47.95;99424.45;107647;1257;72168;-67
2024/01/03 06:19:33;;;;;;;48.60;20.10;;;;;;;-0.51;48.12;99425.00;107615;1257;70108;-66
2024/01/03 06:22:01;;;;;;;46.70;20.60;;;;;;;-0.38;47.94;99421.84;107508;1259;71876;-67
2024/01/03 06:24:28;;;;;;;55.10;22.50;;;;;;;-0.50;48.57;99419.80;107559;1259;60410;-67
2024/01/03 06:26:56;;;;;;;48.80;21.30;;;;;;;-0.45;48.33;99414.96;107559;1259;60918;-67
2024/01/03 06:29:24;;;;;;;50.80;21.30;;;;;;;-0.33;48.44;99419.73;107660;1259;71876;-67
2024/01/03 06:31:51;;;;;;;49.80;20.60;;;;;;;-0.23;48.69;99420.56;107619;1257;69049;-66
2024/01/03 06:34:19;;;;;;;53.50;23.10;;;;;;;-0.26;49.24;99415.04;108020;1255;70549;-66
2024/01/03 06:36:46;;;;;;;49.70;21.10;;;;;;;-0.21;49.68;99409.68;108149;1257;61731;-67
2024/01/03 06:39:14;;;;;;;40.90;17.90;;;;;;;-0.10;49.42;99400.15;108125;1256;59574;-67
2024/01/03 06:41:41;;;;;;;52.50;22.80;;;;;;;0.06;49.48;99393.66;108078;1254;73106;-66
2024/01/03 06:44:09;;;;;;;50.90;22.80;;;;;;;0.16;49.01;99388.94;107942;1253;68740;-67
2024/01/03 06:46:36;;;;;;;49.70;21.70;;;;;;;0.31;49.09;99384.33;108152;1254;70442;-67
2024/01/03 06:49:04;;;;;;;45.90;19.80;;;;;;;0.39;49.25;99381.16;108077;1256;61925;-67
2024/01/03 06:51:32;;;;;;;48.50;21.40;;;;;;;0.58;49.32;99374.63;108080;1254;59640;-67
2024/01/03 06:53:59;;;;;;;40.00;19.60;;;;;;;0.66;48.95;99372.13;108071;1254;72108;-67
2024/01/03 06:56:27;;;;;;;45.50;19.90;;;;;;;0.59;48.03;99375.14;108036;1259;68480;-66
2024/01/03 06:58:58;;;;;;;46.70;20.70;;;;;;;0.39;47.23;99372.19;108038;1254;71448;-67
2024/01/03 07:01:25;;;;;;;;;;;;;;;0.28;47.66;99365.55;108031;1253;60594;-67
2024/01/03 07:03:53;;;;;;;60.10;23.20;;;;;;;0.19;48.09;99361.48;108069;1253;59848;-67
2024/01/03 07:06:21;;;;;;;50.10;21.80;;;;;;;-0.01;48.50;99364.35;107761;1254;75207;-68
2024/01/03 07:08:49;;;;;;;56.30;23.10;;;;;;;0.06;48.52;99362.94;108073;1254;70001;-67
2024/01/03 07:11:16;;;;;;;54.00;23.50;;;;;;;0.10;48.11;99357.90;108019;1254;71071;-67
2024/01/03 07:13:44;;;;;;;51.70;22.60;;;;;;;0.05;48.78;99353.96;108036;1253;60099;-66
2024/01/03 07:16:11;;;;;;;45.20;19.40;;;;;;;-0.04;49.05;99349.54;108084;1254;60005;-67
2024/01/03 07:18:39;;;;;;;43.80;20.30;;;;;;;0.06;48.99;99344.12;108066;1254;71999;-67
2024/01/03 07:21:08;;;;;;;41.50;18.80;;;;;;;0.19;49.50;99334.36;108043;1253;68920;-67
2024/01/03 07:23:35;;;;;;;45.10;20.80;;;;;;;0.31;49.77;99332.71;108093;1253;72668;-67
2024/01/03 07:26:03;;;;;;;52.20;24.10;;;;;;;0.44;49.92;99332.44;108095;1257;60408;-67
2024/01/03 07:28:32;;;;;;;58.40;25.00;;;;;;;0.59;50.07;99331.94;107912;1254;59231;-68
2024/01/03 07:31:00;;;;;;;58.90;22.90;;;;;;;0.84;50.78;99330.15;107999;1254;73068;-68
2024/01/03 07:33:28;;;;;;;54.30;23.30;;;;;;;1.06;50.51;99322.13;107840;1254;70615;-67
2024/01/03 07:35:56;;;;;;;57.30;24.10;;;;;;;1.23;50.07;99311.56;107807;1254;72821;-66
2024/01/03 07:38:23;;;;;;;57.40;25.80;;;;;;;1.32;49.89;99307.65;107829;1256;60424;-67
2024/01/03 07:40:51;;;;;;;53.00;22.00;;;;;;;1.34;49.51;99305.55;107879;1254;60342;-67
2024/01/03 07:43:19;;;;;;;48.60;22.30;;;;;;;1.44;49.71;99300.91;107841;1254;73910;-67
2024/01/03 07:45:46;;;;;;;52.60;21.80;;;;;;;1.69;50.04;99296.23;107821;1260;69986;-67
2024/01/03 07:48:14;;;;;;;52.20;23.50;;;;;;;1.65;49.54;99298.73;107861;1256;72454;-68
2024/01/03 07:50:42;;;;;;;49.10;23.10;;;;;;;1.42;47.89;99305.96;107664;1254;60472;-67
2024/01/03 07:53:10;;;;;;;54.10;23.10;;;;;;;0.92;48.57;99303.08;107851;1254;60316;-67
2024/01/03 07:55:37;;;;;;;53.90;22.60;;;;;;;0.85;48.63;99299.02;107864;1254;74095;-67
2024/01/03 07:58:05;;;;;;;46.30;16.80;;;;;;;0.70;49.10;99302.13;107921;1254;69355;-67
2024/01/03 08:00:32;;;;;;;57.10;25.50;;;;;;;0.44;49.84;99302.73;107829;1254;71878;-67
2024/01/03 08:03:00;;;;;;;57.00;25.50;;;;;;;0.49;49.71;99296.63;107868;1258;60372;-68
2024/01/03 08:05:27;;;;;;;60.00;27.20;;;;;;;0.61;49.63;99288.38;107866;1254;59820;-67
2024/01/03 08:07:55;;;;;;;48.50;21.30;;;;;;;0.72;49.86;99284.65;107924;1254;72492;-67
2024/01/03 08:10:22;;;;;;;48.40;20.20;;;;;;;0.46;50.22;99283.02;107857;1254;69953;-67
2024/01/03 08:12:50;;;;;;;68.00;28.20;;;;;;;0.54;50.06;99278.63;107845;1256;72606;-67
2024/01/03 08:15:20;;;;;;;58.90;26.10;;;;;;;0.41;50.50;99274.25;107938;1255;61822;-67
2024/01/03 08:17:47;;;;;;;60.00;24.40;;;;;;;0.52;50.34;99273.29;107927;1254;60333;-68
2024/01/03 08:20:15;;;;;;;63.20;24.60;;;;;;;0.78;50.19;99264.38;107774;1254;73891;-67
2024/01/03 08:22:43;;;;;;;59.10;23.60;;;;;;;0.96;50.70;99263.81;107779;1256;70249;-67
2024/01/03 08:25:11;;;;;;;61.80;26.20;;;;;;;0.87;50.45;99262.89;107848;1254;73035;-67
2024/01/03 08:27:39;;;;;;;58.50;24.60;;;;;;;0.80;50.73;99260.38;107883;1254;61703;-67
2024/01/03 08:30:07;;;;;;;60.40;24.00;;;;;;;0.80;50.56;99258.83;107951;1254;60056;-67
2024/01/03 08:32:36;;;;;;;60.50;25.90;;;;;;;0.80;50.56;99255.55;108099;1259;72599;-67
2024/01/03 08:35:04;;;;;;;50.80;23.90;;;;;;;0.83;50.07;99255.67;108043;1254;70141;-67
2024/01/03 08:37:32;;;;;;;55.00;23.80;;;;;;;0.72;50.58;99247.52;108079;1254;72848;-67
2024/01/03 08:40:00;;;;;;;61.50;25.30;;;;;;;0.92;50.51;99240.36;108091;1252;61666;-67
2024/01/03 08:42:28;;;;;;;47.50;19.70;;;;;;;1.01;50.41;99237.33;107984;1260;60136;-67
2024/01/03 08:44:56;;;;;;;50.00;24.00;;;;;;;0.83;50.60;99235.63;108132;1254;73851;-67
2024/01/03 08:47:23;;;;;;;61.40;23.80;;;;;;;0.87;50.54;99233.86;108077;1254;69032;-67
2024/01/03 08:49:51;;;;;;;44.10;21.80;;;;;;;0.89;50.74;99231.23;108109;1254;71935;-67
2024/01/03 08:52:19;;;;;;;54.30;23.50;;;;;;;0.92;51.03;99223.77;108106;1254;60481;-67
2024/01/03 08:54:46;;;;;;;53.50;25.10;;;;;;;0.91;50.84;99218.42;108116;1253;60220;-67
2024/01/03 08:57:14;;;;;;;50.90;22.50;;;;;;;0.98;50.92;99216.09;108057;1254;74022;-67
2024/01/03 08:59:42;;;;;;;58.20;24.00;;;;;;;0.96;51.04;99209.39;108174;1254;69442;-67
2024/01/03 09:02:10;;;;;;;61.10;26.20;;;;;;;1.12;50.92;99207.96;108094;1254;72475;-67
2024/01/03 09:04:40;;;;;;;56.20;25.30;;;;;;;1.12;50.71;99207.09;108018;1254;60559;-67
2024/01/03 09:07:08;;;;;;;54.30;24.20;;;;;;;0.98;50.85;99203.99;108116;1254;60265;-67
2024/01/03 09:09:39;;;;;;;56.30;24.10;;;;;;;1.13;50.54;99202.39;108047;1254;73000;-67
2024/01/03 09:12:06;;;;;;;57.90;23.90;;;;;;;1.29;50.89;99197.35;108049;1253;68974;-67
2024/01/03 09:14:35;;;;;;;49.60;19.80;;;;;;;1.31;51.05;99193.85;107933;1255;72677;-67
2024/01/03 09:17:02;;;;;;;48.30;20.30;;;;;;;1.23;51.19;99196.05;107951;1253;61619;-67
2024/01/03 09:19:30;;;;;;;47.30;18.90;;;;;;;1.23;51.13;99188.61;107998;1253;60491;-67
2024/01/03 09:21:59;;;;;;;56.40;24.80;;;;;;;1.29;51.22;99185.94;107968;1252;76188;-67
2024/01/03 09:24:29;;;;;;;59.50;25.50;;;;;;;1.50;51.35;99179.57;107930;1254;70433;-67
2024/01/03 09:26:57;;;;;;;54.70;24.30;;;;;;;1.44;51.22;99179.66;108021;1254;72727;-68
2024/01/03 09:29:25;;;;;;;52.10;24.20;;;;;;;1.57;50.86;99168.91;107912;1255;60546;-67
2024/01/03 09:31:53;;;;;;;54.90;25.00;;;;;;;1.64;51.29;99165.69;107812;1257;60366;-68
2024/01/03 09:34:21;;;;;;;54.20;21.30;;;;;;;1.76;51.09;99157.52;107769;1258;74770;-67
2024/01/03 09:36:48;;;;;;;54.90;23.80;;;;;;;1.98;50.95;99153.52;107747;1258;70521;-68
2024/01/03 09:39:16;;;;;;;56.30;24.20;;;;;;;2.08;50.72;99148.30;107650;1259;71162;-67
2024/01/03 09:41:44;;;;;;;55.90;25.00;;;;;;;2.07;49.75;99136.90;107645;1256;61600;-67
2024/01/03 09:44:12;;;;;;;64.20;26.20;;;;;;;2.22;49.90;99133.84;107670;1255;60353;-67
2024/01/03 09:46:41;;;;;;;53.20;24.80;;;;;;;2.26;49.80;99139.14;107562;1255;74185;-68
2024/01/03 09:49:09;;;;;;;58.20;27.00;;;;;;;2.16;49.74;99130.84;107546;1255;70378;-67
2024/01/03 09:51:37;;;;;;;56.40;24.60;;;;;;;2.03;49.97;99126.91;107631;1256;72786;-68
2024/01/03 09:54:07;;;;;;;42.70;19.80;;;;;;;1.94;50.26;99121.55;107626;1255;61632;-67
2024/01/03 09:56:40;;;;;;;51.60;24.70;;;;;;;1.85;50.43;99123.26;107808;1256;59104;-67
2024/01/03 09:59:08;;;;;;;55.40;24.60;;;;;;;1.93;50.09;99112.92;107666;1256;72506;-67
2024/01/03 10:01:37;;;;;;;58.80;25.50;;;;;;;1.93;50.33;99110.84;107639;1261;69188;-67
2024/01/03 10:04:06;;;;;;;65.80;30.00;;;;;;;1.94;50.50;99104.77;107645;1255;73579;-68
2024/01/03 10:06:53;;;;;;;63.40;26.00;;;;;;;2.00;50.77;99098.06;107667;1256;60431;-67
2024/01/03 10:09:21;;;;;;;52.40;22.80;;;;;;;1.93;50.78;99091.63;107669;1256;60300;-67
2024/01/03 10:11:53;;;;;;;58.80;26.10;;;;;;;1.96;50.93;99094.69;107708;1256;72686;-67
2024/01/03 10:14:24;;;;;;;50.50;23.10;;;;;;;2.03;50.56;99092.48;107670;1256;69236;-67
2024/01/03 10:16:52;;;;;;;55.40;23.80;;;;;;;2.00;50.48;99084.39;107642;1259;73131;-67
2024/01/03 10:19:20;;;;;;;50.40;21.50;;;;;;;2.00;50.71;99077.30;107576;1255;62724;-67
2024/01/03 10:21:53;;;;;;;51.50;24.80;;;;;;;1.98;51.41;99068.70;107651;1256;59109;-67
2024/01/03 10:24:23;;;;;;;55.70;24.50;;;;;;;2.10;51.73;99055.48;107674;1255;73068;-67
2024/01/03 10:26:51;;;;;;;56.20;25.30;;;;;;;2.23;52.18;99048.61;107645;1256;70106;-67
2024/01/03 10:29:19;;;;;;;57.10;25.90;;;;;;;2.33;51.30;99042.00;107817;1260;72796;-67
2024/01/03 10:31:47;;;;;;;56.00;24.10;;;;;;;2.41;51.10;99033.36;107895;1254;62174;-67
2024/01/03 10:34:24;;;;;;;57.00;25.30;;;;;;;2.45;50.73;99030.14;107997;1254;60983;-67
2024/01/03 10:36:53;;;;;;;48.00;22.00;;;;;;;2.51;50.63;99026.20;107936;1254;72633;-67
2024/01/03 10:39:22;;;;;;;52.20;24.60;;;;;;;2.53;50.65;99023.05;107887;1254;70956;-67
2024/01/03 10:41:51;;;;;;;46.60;18.80;;;;;;;2.58;50.66;99019.11;107992;1254;73145;-68
2024/01/03 10:44:19;;;;;;;51.60;23.60;;;;;;;2.69;50.47;99008.64;107995;1254;61136;-68
2024/01/03 10:46:48;;;;;;;50.60;22.00;;;;;;;2.85;50.74;99004.64;107939;1254;60299;-67
2024/01/03 10:49:16;;;;;;;55.70;25.50;;;;;;;2.83;50.49;99003.80;108022;1254;72854;-68
2024/01/03 10:51:47;;;;;;;56.70;26.60;;;;;;;2.78;49.88;98996.30;108054;1254;72367;-69
2024/01/03 10:54:17;;;;;;;54.20;25.20;;;;;;;2.65;49.85;98995.05;107919;1254;74981;-68
2024/01/03 10:56:50;;;;;;;53.40;25.30;;;;;;;2.49;49.93;98987.60;108097;1254;61696;-67
2024/01/03 10:59:18;;;;;;;52.30;23.40;;;;;;;2.35;50.30;98979.10;108066;1254;60318;-67
2024/01/03 11:01:50;;;;;;;56.80;25.70;;;;;;;2.33;50.50;98974.48;108070;1254;73885;-67
2024/01/03 11:04:33;;;;;;;50.10;23.90;;;;;;;2.30;50.77;98967.23;107908;1254;70136;-67
2024/01/03 11:07:20;;;;;;;49.20;23.60;;;;;;;2.24;50.97;98956.65;107996;1254;71374;-67
2024/01/03 11:09:47;;;;;;;40.10;16.80;;;;;;;2.32;51.02;98946.23;108087;1259;61128;-67
2024/01/03 11:12:15;;;;;;;54.10;24.60;;;;;;;2.15;51.12;98943.15;108094;1254;60370;-67
2024/01/03 11:14:45;;;;;;;48.00;23.90;;;;;;;2.16;51.14;98935.52;108083;1254;72860;-67
2024/01/03 11:17:14;;;;;;;45.30;21.70;;;;;;;1.86;52.01;98927.50;108030;1254;70469;-67
2024/01/03 11:19:41;;;;;;;47.50;21.80;;;;;;;1.76;52.13;98928.40;107779;1254;71413;-67
2024/01/03 11:22:09;;;;;;;52.30;23.50;;;;;;;1.92;51.95;98926.17;108055;1256;60464;-66